Time;durP1;ratioP1;P1;durP2;ratioP2;P2;SDS_P1;SDS_P2;PMS_P1;PMS_P2;Temp;Humidity;BMP_temperature;BMP_pressure;BME280_temperature;BME280_humidity;BME280_pressure;Samples;Min_cycle;Max_cycle;Signal;HPM_P1;HPM_P2
2023/12/20 00:01:47;;;;;;;10.13;2.80;;;7.30;99.90;;;;;;5052353;28;20066;-71
2023/12/20 00:04:12;;;;;;;14.57;2.40;;;7.20;99.90;;;;;;5053665;28;20505;-71
2023/12/20 00:06:38;;;;;;;9.18;1.98;;;7.30;99.90;;;;;;5051963;28;20037;-71
2023/12/20 00:09:03;;;;;;;7.05;2.15;;;7.20;99.90;;;;;;5053423;28;20043;-71
2023/12/20 00:11:29;;;;;;;12.35;3.05;;;7.20;99.90;;;;;;5052153;28;20033;-71
2023/12/20 00:13:55;;;;;;;13.93;2.15;;;7.30;99.90;;;;;;5053487;28;20072;-71
2023/12/20 00:16:20;;;;;;;9.68;2.22;;;7.20;99.90;;;;;;5052228;28;20037;-71
2023/12/20 00:18:46;;;;;;;12.30;1.60;;;7.10;99.90;;;;;;5053226;28;20044;-71
2023/12/20 00:21:11;;;;;;;15.90;2.45;;;7.00;99.90;;;;;;5053172;28;20045;-71
2023/12/20 00:23:37;;;;;;;14.38;2.05;;;7.00;99.90;;;;;;5053282;28;20072;-71
2023/12/20 00:26:03;;;;;;;18.92;2.35;;;7.10;99.90;;;;;;5053064;28;20122;-71
2023/12/20 00:28:28;;;;;;;8.68;1.80;;;7.10;99.90;;;;;;5052841;28;20507;-71
2023/12/20 00:30:54;;;;;;;9.60;2.97;;;7.00;99.90;;;;;;5052914;28;20037;-71
2023/12/20 00:33:19;;;;;;;15.68;3.65;;;7.10;99.90;;;;;;5051940;28;20033;-71
2023/12/20 00:35:45;;;;;;;16.75;2.88;;;7.00;99.90;;;;;;5052869;28;20407;-71
2023/12/20 00:38:11;;;;;;;16.85;2.47;;;7.00;99.90;;;;;;5051435;28;20037;-71
2023/12/20 00:40:37;;;;;;;12.93;2.97;;;7.00;99.90;;;;;;5052651;28;20102;-71
2023/12/20 00:43:03;;;;;;;9.75;2.20;;;6.90;99.90;;;;;;5051496;28;20045;-71
2023/12/20 00:45:28;;;;;;;15.88;2.65;;;7.00;99.90;;;;;;5052915;28;20040;-71
2023/12/20 00:47:54;;;;;;;13.88;2.25;;;7.00;99.90;;;;;;5052401;28;20072;-71
2023/12/20 00:50:21;;;;;;;9.02;1.90;;;7.00;99.90;;;;;;5051496;28;20493;-71
2023/12/20 00:52:47;;;;;;;11.05;1.50;;;6.90;99.90;;;;;;5052608;28;20047;-71
2023/12/20 00:55:13;;;;;;;17.75;4.05;;;7.00;99.90;;;;;;5052461;28;20112;-71
2023/12/20 00:57:39;;;;;;;9.18;1.85;;;6.90;99.90;;;;;;5052465;28;20044;-71
2023/12/20 01:00:05;;;;;;;11.27;2.72;;;6.90;99.90;;;;;;5052570;28;20040;-71
2023/12/20 01:02:31;;;;;;;11.20;2.10;;;6.90;99.90;;;;;;5052568;28;20077;-71
2023/12/20 01:04:56;;;;;;;13.63;2.97;;;7.00;99.90;;;;;;5052374;28;20075;-71
2023/12/20 01:07:22;;;;;;;12.02;2.63;;;7.10;99.90;;;;;;5052037;28;20515;-71
2023/12/20 01:09:47;;;;;;;16.05;3.53;;;6.90;99.90;;;;;;5050929;28;20033;-71
2023/12/20 01:12:13;;;;;;;15.07;2.97;;;6.90;99.90;;;;;;5051015;28;20044;-71
2023/12/20 01:14:39;;;;;;;15.45;3.83;;;6.90;99.90;;;;;;5052315;28;20039;-71
2023/12/20 01:17:05;;;;;;;22.20;2.67;;;7.00;99.90;;;;;;5042142;28;20121;-71
2023/12/20 01:19:31;;;;;;;11.45;2.92;;;7.00;99.90;;;;;;5030857;28;20038;-71
2023/12/20 01:21:56;;;;;;;11.52;2.22;;;7.10;99.90;;;;;;5032170;28;20037;-71
2023/12/20 01:24:22;;;;;;;13.27;3.70;;;7.00;99.90;;;;;;5032044;28;20038;-71
2023/12/20 01:26:47;;;;;;;10.80;2.65;;;7.00;99.90;;;;;;5031995;28;20147;-71
2023/12/20 01:29:14;;;;;;;16.00;3.78;;;7.10;99.90;;;;;;5031899;28;20045;-71
2023/12/20 01:31:40;;;;;;;13.80;3.35;;;7.00;99.90;;;;;;5032116;28;20029;-71
2023/12/20 01:34:06;;;;;;;13.18;3.55;;;6.90;99.90;;;;;;5030698;28;20420;-71
2023/12/20 01:36:32;;;;;;;13.80;2.80;;;7.00;99.90;;;;;;5031816;28;20029;-71
2023/12/20 01:38:57;;;;;;;15.10;3.13;;;7.00;99.90;;;;;;5031640;28;20068;-71
2023/12/20 01:41:23;;;;;;;10.82;2.50;;;6.90;99.90;;;;;;5031937;28;20045;-71
2023/12/20 01:43:49;;;;;;;11.15;2.58;;;7.00;99.90;;;;;;5031858;28;20037;-71
2023/12/20 01:46:15;;;;;;;11.20;3.70;;;6.90;99.90;;;;;;5031853;28;20080;-71
2023/12/20 01:48:41;;;;;;;13.52;2.97;;;6.90;99.90;;;;;;5031642;28;20046;-71
2023/12/20 01:51:07;;;;;;;18.58;3.50;;;7.00;99.90;;;;;;5031784;28;20112;-71
2023/12/20 01:53:33;;;;;;;13.02;2.38;;;7.10;99.90;;;;;;5031758;28;20537;-71
2023/12/20 01:55:59;;;;;;;11.25;2.58;;;7.10;99.90;;;;;;5031883;28;20049;-71
2023/12/20 01:58:25;;;;;;;15.63;3.70;;;7.10;99.90;;;;;;5031727;28;20425;-71
2023/12/20 02:00:51;;;;;;;13.57;3.75;;;7.30;99.90;;;;;;5031486;28;20103;-71
2023/12/20 02:03:18;;;;;;;13.27;2.70;;;7.20;99.90;;;;;;5031499;28;20041;-71
2023/12/20 02:05:45;;;;;;;15.70;2.50;;;7.30;99.90;;;;;;5031568;28;20091;-71
2023/12/20 02:08:11;;;;;;;14.25;2.78;;;7.10;99.90;;;;;;5030060;28;20049;-71
2023/12/20 02:10:37;;;;;;;8.57;2.15;;;7.10;99.90;;;;;;5031458;28;20033;-71
2023/12/20 02:13:04;;;;;;;8.55;2.17;;;7.10;99.90;;;;;;5030586;28;20046;-71
2023/12/20 02:15:29;;;;;;;10.38;3.30;;;7.10;99.90;;;;;;5030294;28;20049;-71
2023/12/20 02:17:55;;;;;;;8.60;1.75;;;7.20;99.90;;;;;;5031216;28;20049;-71
2023/12/20 02:20:21;;;;;;;9.63;1.60;;;7.10;99.90;;;;;;5030444;28;20495;-71
2023/12/20 02:22:46;;;;;;;9.70;3.20;;;7.10;99.90;;;;;;5030063;28;20043;-71
2023/12/20 02:25:12;;;;;;;9.73;2.40;;;7.20;99.90;;;;;;5031622;28;20042;-71
2023/12/20 02:27:39;;;;;;;14.07;2.35;;;7.10;99.90;;;;;;5031328;28;20077;-71
2023/12/20 02:30:05;;;;;;;10.65;3.08;;;7.20;99.90;;;;;;5030377;28;20103;-71
2023/12/20 02:32:31;;;;;;;9.85;3.15;;;7.00;99.90;;;;;;5031341;28;20056;-71
2023/12/20 02:34:58;;;;;;;11.32;3.10;;;7.00;99.90;;;;;;5030072;28;20493;-71
2023/12/20 02:37:24;;;;;;;15.68;2.83;;;7.00;99.90;;;;;;5031002;28;20045;-71
2023/12/20 02:39:49;;;;;;;11.45;3.60;;;7.10;99.90;;;;;;5054182;22;20052;-74
2023/12/20 02:42:15;;;;;;;25.38;3.70;;;7.10;99.90;;;;;;5014368;28;20121;-75
2023/12/20 02:44:40;;;;;;;20.17;2.58;;;7.10;99.90;;;;;;5030155;28;20500;-75
2023/12/20 02:47:06;;;;;;;14.48;2.85;;;7.20;99.90;;;;;;5031104;28;20092;-75
2023/12/20 02:49:32;;;;;;;13.18;3.38;;;7.10;99.90;;;;;;5029928;28;20493;-75
2023/12/20 02:51:57;;;;;;;19.83;3.30;;;7.20;99.90;;;;;;5031017;28;20459;-76
2023/12/20 02:54:23;;;;;;;20.58;3.60;;;7.20;99.90;;;;;;5031156;28;20036;-75
2023/12/20 02:56:49;;;;;;;18.75;3.50;;;7.20;99.90;;;;;;5029617;28;20041;-75
2023/12/20 02:59:14;;;;;;;13.68;3.33;;;7.10;99.90;;;;;;5029891;28;20145;-75
2023/12/20 03:01:43;;;;;;;14.35;3.50;;;7.20;99.90;;;;;;5029926;28;20064;-75
2023/12/20 03:04:08;;;;;;;19.75;3.65;;;7.20;99.90;;;;;;5029823;28;20087;-75
2023/12/20 03:06:34;;;;;;;21.83;4.97;;;7.10;99.90;;;;;;5031086;28;20068;-75
2023/12/20 03:09:00;;;;;;;16.98;4.45;;;7.20;99.90;;;;;;5030070;28;20037;-75
2023/12/20 03:11:28;;;;;;;21.95;4.55;;;7.30;99.90;;;;;;5032332;28;20030;-75
2023/12/20 03:13:57;;;;;;;15.15;3.72;;;7.30;99.90;;;;;;5031934;28;20073;-75
2023/12/20 03:16:24;;;;;;;17.42;3.63;;;7.20;99.90;;;;;;5034123;28;20040;-75
2023/12/20 03:18:49;;;;;;;17.60;4.97;;;7.20;99.90;;;;;;5033860;28;20091;-75
2023/12/20 03:21:15;;;;;;;16.10;6.18;;;7.30;99.90;;;;;;5034484;28;20444;-76
2023/12/20 03:23:41;;;;;;;21.05;4.07;;;7.30;99.90;;;;;;5033811;28;20037;-75
2023/12/20 03:26:07;;;;;;;24.67;4.95;;;7.30;99.90;;;;;;5033908;28;20401;-75
2023/12/20 03:28:33;;;;;;;19.30;4.70;;;7.20;99.90;;;;;;5033780;28;20041;-75
2023/12/20 03:30:59;;;;;;;15.88;3.72;;;7.30;99.90;;;;;;5017283;28;20041;-75
2023/12/20 03:33:25;;;;;;;22.90;4.20;;;7.30;99.90;;;;;;5033810;28;20049;-75
2023/12/20 03:35:50;;;;;;;25.25;5.65;;;7.20;99.90;;;;;;5034192;28;20048;-75
2023/12/20 03:38:16;;;;;;;23.55;5.63;;;7.20;99.90;;;;;;5035103;28;20124;-75
2023/12/20 03:40:42;;;;;;;19.60;4.70;;;7.30;99.90;;;;;;5033553;28;20041;-75
2023/12/20 03:43:07;;;;;;;23.98;5.07;;;7.30;99.90;;;;;;5033537;28;20041;-75
2023/12/20 03:45:33;;;;;;;22.75;4.75;;;7.30;99.90;;;;;;5033915;28;20390;-75
2023/12/20 03:47:59;;;;;;;28.65;4.50;;;7.40;99.90;;;;;;5033194;28;20073;-75
2023/12/20 03:50:25;;;;;;;19.92;6.18;;;7.50;99.90;;;;;;5033044;28;20081;-75
2023/12/20 03:52:51;;;;;;;26.15;4.30;;;7.40;99.90;;;;;;5032781;28;20041;-75
2023/12/20 03:55:16;;;;;;;20.42;4.70;;;7.40;99.90;;;;;;5033588;28;20041;-75
2023/12/20 03:57:42;;;;;;;25.48;5.07;;;7.40;99.90;;;;;;5033348;28;20056;-75
2023/12/20 04:00:11;;;;;;;22.42;6.22;;;7.30;99.90;;;;;;5017039;28;20045;-75
2023/12/20 04:02:38;;;;;;;22.48;4.30;;;7.50;99.90;;;;;;5016578;28;20049;-75
2023/12/20 04:05:04;;;;;;;25.70;5.40;;;7.50;99.90;;;;;;5033187;28;20397;-75
2023/12/20 04:07:30;;;;;;;23.27;4.25;;;7.40;99.90;;;;;;5016212;28;20098;-75
2023/12/20 04:09:56;;;;;;;29.10;7.53;;;7.40;99.90;;;;;;5032857;28;20439;-75
2023/12/20 04:12:21;;;;;;;27.60;5.47;;;7.50;99.90;;;;;;5033643;28;20068;-75
2023/12/20 04:14:47;;;;;;;27.55;5.10;;;7.40;99.90;;;;;;5033320;28;20037;-75
2023/12/20 04:17:13;;;;;;;20.52;5.78;;;7.50;99.90;;;;;;5033325;28;20428;-75
2023/12/20 04:19:38;;;;;;;28.30;5.00;;;7.40;99.90;;;;;;5034775;28;20116;-75
2023/12/20 04:22:04;;;;;;;23.42;4.72;;;7.40;99.90;;;;;;5033805;28;20176;-75
2023/12/20 04:24:29;;;;;;;23.75;6.70;;;7.40;99.90;;;;;;5034282;28;20041;-75
2023/12/20 04:26:55;;;;;;;23.42;3.92;;;7.40;99.90;;;;;;5034185;28;20463;-75
2023/12/20 04:29:21;;;;;;;18.33;3.70;;;7.50;99.90;;;;;;5034244;28;20077;-75
2023/12/20 04:31:46;;;;;;;19.17;4.88;;;7.50;99.90;;;;;;5034268;28;20072;-75
2023/12/20 04:34:12;;;;;;;12.90;4.22;;;7.50;99.90;;;;;;5033423;28;20513;-75
2023/12/20 04:36:37;;;;;;;22.15;4.18;;;7.50;99.90;;;;;;5032515;28;20037;-75
2023/12/20 04:39:03;;;;;;;17.98;4.03;;;7.50;99.90;;;;;;5032937;28;20041;-75
2023/12/20 04:41:29;;;;;;;31.48;4.78;;;7.50;99.90;;;;;;5032847;28;20111;-75
2023/12/20 04:43:54;;;;;;;23.77;5.07;;;7.50;99.90;;;;;;5034281;28;20043;-75
2023/12/20 04:46:20;;;;;;;17.17;4.30;;;7.70;99.90;;;;;;5032622;28;20037;-75
2023/12/20 04:48:45;;;;;;;23.17;4.47;;;7.60;99.90;;;;;;5031443;28;20045;-75
2023/12/20 04:51:11;;;;;;;22.95;4.85;;;7.60;99.90;;;;;;5033581;28;20508;-75
2023/12/20 04:53:36;;;;;;;24.23;4.22;;;7.60;99.90;;;;;;5032378;28;20037;-75
2023/12/20 04:56:02;;;;;;;22.80;4.95;;;7.60;99.90;;;;;;5016183;28;20076;-75
2023/12/20 04:58:28;;;;;;;24.77;4.22;;;7.60;99.90;;;;;;5032008;28;20041;-75
2023/12/20 05:00:53;;;;;;;19.52;4.63;;;7.60;99.90;;;;;;5028899;28;20045;-75
2023/12/20 05:03:19;;;;;;;21.40;5.32;;;7.60;99.90;;;;;;5024418;28;20044;-75
2023/12/20 05:05:45;;;;;;;35.35;5.00;;;7.50;99.90;;;;;;5031829;28;20540;-75
2023/12/20 05:08:10;;;;;;;14.88;3.88;;;7.70;99.90;;;;;;5032314;28;20044;-75
2023/12/20 05:10:36;;;;;;;24.48;4.50;;;7.80;99.90;;;;;;5027902;28;20049;-75
2023/12/20 05:13:02;;;;;;;23.67;4.72;;;7.70;99.90;;;;;;5028544;28;20038;-75
2023/12/20 05:15:28;;;;;;;25.60;4.53;;;7.80;99.90;;;;;;5030996;28;20037;-75
2023/12/20 05:17:53;;;;;;;17.13;3.85;;;7.70;99.90;;;;;;5031222;28;20049;-75
2023/12/20 05:20:19;;;;;;;19.77;4.43;;;7.80;99.90;;;;;;5032950;28;20068;-75
2023/12/20 05:22:45;;;;;;;19.67;4.68;;;7.80;99.90;;;;;;5033147;28;20132;-75
2023/12/20 05:25:10;;;;;;;25.17;5.28;;;7.80;99.90;;;;;;5031050;28;20136;-74
2023/12/20 05:27:36;;;;;;;20.25;4.30;;;7.80;99.90;;;;;;5030511;28;20072;-74
2023/12/20 05:30:04;;;;;;;21.63;5.28;;;7.90;99.90;;;;;;5023482;28;20033;-75
2023/12/20 05:32:30;;;;;;;26.48;4.60;;;7.90;99.90;;;;;;5032308;28;20497;-75
2023/12/20 05:34:55;;;;;;;28.67;5.43;;;7.90;99.90;;;;;;5031598;28;20047;-75
2023/12/20 05:37:21;;;;;;;23.73;4.38;;;8.00;99.90;;;;;;5032068;28;20520;-73
2023/12/20 05:39:46;;;;;;;15.57;4.03;;;7.90;99.90;;;;;;5032216;28;20037;-74
2023/12/20 05:42:12;;;;;;;21.73;5.22;;;7.90;99.90;;;;;;5032870;28;20049;-73
2023/12/20 05:44:38;;;;;;;19.83;4.60;;;8.10;99.90;;;;;;5014659;28;20037;-73
2023/12/20 05:47:03;;;;;;;31.02;4.75;;;8.10;99.90;;;;;;5031375;28;20041;-73
2023/12/20 05:49:29;;;;;;;20.15;4.35;;;8.00;99.90;;;;;;5030874;28;20127;-73
2023/12/20 05:51:55;;;;;;;20.33;4.95;;;8.00;99.90;;;;;;5032381;28;20041;-73
2023/12/20 05:54:21;;;;;;;23.42;5.18;;;8.00;99.90;;;;;;5032534;28;20033;-73
2023/12/20 05:56:47;;;;;;;20.38;5.15;;;8.00;99.90;;;;;;5030975;28;20046;-73
2023/12/20 05:59:13;;;;;;;24.70;5.32;;;8.10;99.90;;;;;;5031882;28;20049;-73
2023/12/20 06:01:39;;;;;;;19.48;5.32;;;8.10;99.90;;;;;;5031076;28;20077;-73
2023/12/20 06:04:04;;;;;;;28.20;6.00;;;8.10;99.90;;;;;;5031018;28;20072;-73
2023/12/20 06:06:30;;;;;;;15.85;3.63;;;8.10;99.90;;;;;;5031622;28;20572;-73
2023/12/20 06:08:56;;;;;;;19.58;4.18;;;8.10;99.90;;;;;;5013987;28;20500;-73
2023/12/20 06:11:22;;;;;;;15.63;5.03;;;8.10;99.90;;;;;;5030649;28;20073;-73
2023/12/20 06:13:48;;;;;;;22.17;5.82;;;8.20;99.90;;;;;;5030927;28;20068;-73
2023/12/20 06:16:15;;;;;;;19.55;4.22;;;8.10;99.90;;;;;;5030928;28;20091;-73
2023/12/20 06:18:40;;;;;;;26.55;4.78;;;8.20;99.90;;;;;;5030887;28;20042;-73
2023/12/20 06:21:07;;;;;;;22.38;4.63;;;8.30;99.90;;;;;;5030995;28;20394;-73
2023/12/20 06:23:33;;;;;;;26.88;4.70;;;8.10;99.90;;;;;;5031115;28;20681;-74
2023/12/20 06:25:58;;;;;;;22.15;6.00;;;8.20;99.90;;;;;;5014506;28;20072;-73
2023/12/20 06:28:24;;;;;;;48.70;6.35;;;8.20;99.90;;;;;;5030930;28;20033;-73
2023/12/20 06:30:52;;;;;;;29.10;5.38;;;8.20;99.90;;;;;;5030859;28;20037;-74
2023/12/20 06:33:18;;;;;;;28.55;6.40;;;8.20;99.90;;;;;;5031254;28;20046;-73
2023/12/20 06:35:44;;;;;;;22.63;5.05;;;8.30;99.90;;;;;;5030063;28;20049;-73
2023/12/20 06:38:09;;;;;;;30.65;5.63;;;8.20;99.90;;;;;;5030915;28;20045;-73
2023/12/20 06:40:35;;;;;;;23.52;4.45;;;8.10;99.90;;;;;;5031679;28;20416;-74
2023/12/20 06:43:00;;;;;;;23.55;4.90;;;8.10;99.90;;;;;;5030726;28;20036;-73
2023/12/20 06:45:26;;;;;;;27.40;5.78;;;8.10;99.90;;;;;;5030893;28;20485;-73
2023/12/20 06:47:52;;;;;;;22.08;5.10;;;8.20;99.90;;;;;;5031604;28;20037;-73
2023/12/20 06:50:17;;;;;;;23.92;6.25;;;8.30;99.90;;;;;;5034669;28;20045;-73
2023/12/20 06:52:43;;;;;;;20.75;4.20;;;8.30;99.90;;;;;;5034423;28;20033;-74
2023/12/20 06:55:09;;;;;;;19.42;3.95;;;8.30;99.90;;;;;;5017952;28;20489;-73
2023/12/20 06:57:36;;;;;;;25.85;4.88;;;8.20;99.90;;;;;;5033902;28;20037;-73
2023/12/20 07:00:02;;;;;;;22.15;5.28;;;8.30;99.90;;;;;;5033808;28;20053;-73
2023/12/20 07:02:30;;;;;;;26.58;4.43;;;8.30;99.90;;;;;;5034086;28;20041;-73
2023/12/20 07:04:56;;;;;;;21.20;4.10;;;8.30;99.90;;;;;;5034029;28;20081;-74
2023/12/20 07:07:23;;;;;;;29.35;6.95;;;8.40;99.90;;;;;;5033732;28;20079;-73
2023/12/20 07:09:48;;;;;;;21.13;4.85;;;8.30;99.90;;;;;;5034326;28;20060;-73
2023/12/20 07:12:14;;;;;;;20.45;3.85;;;8.40;99.90;;;;;;5033924;28;20037;-73
2023/12/20 07:14:40;;;;;;;19.98;4.85;;;8.40;99.90;;;;;;5034408;28;20083;-73
2023/12/20 07:17:11;;;;;;;20.55;4.25;;;8.40;99.90;;;;;;5033475;28;20412;-73
2023/12/20 07:19:37;;;;;;;24.52;4.70;;;8.40;99.90;;;;;;5034997;28;20067;-73
2023/12/20 07:22:04;;;;;;;21.67;5.65;;;8.30;99.90;;;;;;5034261;28;20033;-74
2023/12/20 07:24:29;;;;;;;22.45;5.57;;;8.40;99.90;;;;;;5034509;28;20069;-73
2023/12/20 07:26:55;;;;;;;16.17;4.53;;;8.40;99.90;;;;;;5034252;28;20152;-73
2023/12/20 07:29:20;;;;;;;22.17;4.50;;;8.40;99.90;;;;;;5033125;28;20091;-73
2023/12/20 07:31:46;;;;;;;28.52;5.30;;;8.40;99.90;;;;;;5034349;28;20037;-73
2023/12/20 07:34:12;;;;;;;13.95;4.15;;;8.50;99.90;;;;;;5033729;28;20040;-73
2023/12/20 07:36:37;;;;;;;23.40;5.25;;;8.50;99.90;;;;;;5035170;28;20038;-73
2023/12/20 07:39:03;;;;;;;32.00;5.25;;;8.40;99.90;;;;;;5034804;28;20037;-73
2023/12/20 07:41:28;;;;;;;18.42;4.95;;;8.50;99.90;;;;;;5033985;28;20037;-73
2023/12/20 07:43:54;;;;;;;23.95;4.80;;;8.60;99.90;;;;;;5033112;28;20041;-73
2023/12/20 07:46:22;;;;;;;16.85;4.22;;;8.60;99.90;;;;;;5032631;28;20046;-73
2023/12/20 07:48:48;;;;;;;22.70;5.50;;;8.50;99.90;;;;;;5032493;28;20052;-73
2023/12/20 07:51:13;;;;;;;22.10;5.22;;;8.70;99.90;;;;;;5033609;28;20042;-73
2023/12/20 07:53:39;;;;;;;21.40;5.03;;;8.60;99.90;;;;;;5034654;28;20113;-73
2023/12/20 07:56:15;;;;;;;24.77;5.80;;;8.70;99.90;;;;;;5017039;28;20044;-74
2023/12/20 07:58:41;;;;;;;26.00;6.15;;;8.70;99.90;;;;;;5034589;28;20045;-73
2023/12/20 08:01:06;;;;;;;27.85;4.78;;;8.70;99.90;;;;;;5033461;28;20120;-73
2023/12/20 08:03:32;;;;;;;23.63;5.13;;;8.70;99.90;;;;;;5033358;28;20586;-73
2023/12/20 08:05:59;;;;;;;16.75;3.85;;;8.80;99.90;;;;;;5034487;28;20324;-73
2023/12/20 08:08:25;;;;;;;22.00;4.97;;;8.80;99.90;;;;;;5033145;28;20048;-73
2023/12/20 08:10:50;;;;;;;18.13;4.57;;;8.80;99.90;;;;;;5033031;28;20124;-73
2023/12/20 08:13:16;;;;;;;19.80;6.05;;;8.80;99.90;;;;;;5033331;28;20038;-73
2023/12/20 08:15:42;;;;;;;16.63;4.30;;;8.80;99.90;;;;;;5034251;28;20042;-74
2023/12/20 08:18:07;;;;;;;23.80;4.47;;;8.90;99.90;;;;;;5032902;28;20046;-74
2023/12/20 08:20:33;;;;;;;24.80;4.50;;;8.80;99.90;;;;;;5032461;28;20412;-73
2023/12/20 08:22:59;;;;;;;16.73;4.10;;;8.90;99.90;;;;;;5033946;28;20033;-73
2023/12/20 08:25:24;;;;;;;20.40;4.45;;;8.90;99.90;;;;;;5033373;28;20562;-74
2023/12/20 08:27:50;;;;;;;16.85;4.80;;;9.00;99.90;;;;;;5033390;28;20037;-75
2023/12/20 08:30:20;;;;;;;22.13;4.65;;;8.90;99.90;;;;;;5033604;28;20566;-74
2023/12/20 08:32:46;;;;;;;21.60;4.55;;;8.90;99.90;;;;;;5031963;28;20425;-74
2023/12/20 08:35:11;;;;;;;12.38;3.38;;;8.90;99.90;;;;;;5015636;28;20037;-74
2023/12/20 08:37:37;;;;;;;26.02;5.10;;;8.90;99.90;;;;;;5031670;28;20099;-74
2023/12/20 08:40:03;;;;;;;23.88;3.90;;;8.90;99.90;;;;;;5065799;22;20140;-70
2023/12/20 08:42:31;;;;;;;24.67;5.00;;;9.00;99.90;;;;;;5081172;28;20042;-70
2023/12/20 08:45:00;;;;;;;15.40;3.95;;;8.90;99.90;;;;;;5071645;28;20039;-70
2023/12/20 08:47:25;;;;;;;21.10;4.00;;;9.00;99.90;;;;;;5072770;28;20067;-70
2023/12/20 08:49:56;;;;;;;19.10;4.55;;;8.90;99.90;;;;;;5090189;28;20036;-71
2023/12/20 08:52:24;;;;;;;14.38;3.63;;;9.00;99.90;;;;;;5092890;28;20118;-70
2023/12/20 08:54:53;;;;;;;19.15;4.53;;;9.00;99.90;;;;;;5093050;28;20407;-70
2023/12/20 08:57:25;;;;;;;11.63;2.25;;;9.00;99.90;;;;;;5092775;28;20085;-70
2023/12/20 08:59:51;;;;;;;6.93;1.23;;;8.90;99.90;;;;;;5085959;28;20460;-71
2023/12/20 09:02:17;;;;;;;2.92;1.35;;;8.50;99.90;;;;;;5082729;28;20407;-71
2023/12/20 09:04:43;;;;;;;5.97;0.70;;;8.10;99.90;;;;;;5061849;28;20048;-71
2023/12/20 09:07:30;;;;;;;5.80;1.10;;;7.70;99.90;;;;;;5067019;28;20111;-71
2023/12/20 09:09:56;;;;;;;4.57;0.90;;;7.40;99.90;;;;;;5070779;28;20033;-71
2023/12/20 09:12:22;;;;;;;5.40;1.02;;;7.30;99.90;;;;;;5071181;28;20036;-70
2023/12/20 09:14:48;;;;;;;7.75;1.60;;;7.20;99.90;;;;;;5070659;28;20515;-74
2023/12/20 09:17:15;;;;;;;7.45;1.00;;;7.20;99.90;;;;;;5071382;28;20087;-75
2023/12/20 09:19:41;;;;;;;6.15;1.15;;;7.10;99.90;;;;;;5072245;28;20037;-74
2023/12/20 09:22:07;;;;;;;12.35;1.23;;;7.10;99.90;;;;;;5072281;28;20082;-75
2023/12/20 09:24:33;;;;;;;7.60;1.40;;;7.10;99.90;;;;;;5070704;28;20044;-75
2023/12/20 09:26:58;;;;;;;8.57;1.50;;;7.10;99.90;;;;;;5071445;28;20052;-72
2023/12/20 09:29:24;;;;;;;5.47;1.35;;;7.10;99.90;;;;;;5075736;28;20046;-73
2023/12/20 09:31:50;;;;;;;12.02;1.80;;;7.10;99.90;;;;;;5077144;28;20045;-72
2023/12/20 09:34:19;;;;;;;4.75;1.70;;;7.20;99.90;;;;;;5071715;28;20581;-72
2023/12/20 09:36:46;;;;;;;9.70;1.63;;;7.20;99.90;;;;;;5071483;28;20046;-72
2023/12/20 09:39:20;;;;;;;6.97;1.20;;;7.20;99.90;;;;;;5069974;28;20119;-72
2023/12/20 09:42:02;;;;;;;3.85;1.00;;;7.10;99.90;;;;;;5070974;28;20052;-72
2023/12/20 09:44:28;;;;;;;10.20;1.13;;;7.20;99.90;;;;;;5071671;28;20553;-72
2023/12/20 09:46:55;;;;;;;3.80;1.23;;;7.10;99.90;;;;;;5071449;28;20404;-72
2023/12/20 09:49:22;;;;;;;4.10;1.15;;;7.10;99.90;;;;;;5070270;28;20045;-72
2023/12/20 09:51:48;;;;;;;6.82;0.85;;;7.10;99.90;;;;;;5053491;28;20545;-72
2023/12/20 09:54:17;;;;;;;4.70;0.70;;;7.00;99.90;;;;;;5072281;28;20024;-72
2023/12/20 09:56:46;;;;;;;2.92;0.70;;;7.10;99.90;;;;;;5072588;28;20127;-72
2023/12/20 09:59:12;;;;;;;6.88;0.90;;;7.10;99.90;;;;;;5104133;28;20538;-72
2023/12/20 10:01:42;;;;;;;4.75;0.73;;;7.00;99.90;;;;;;5081976;28;20407;-72
2023/12/20 10:04:12;;;;;;;5.78;1.60;;;7.10;99.90;;;;;;5077482;28;20028;-72
2023/12/20 10:06:44;;;;;;;6.53;0.85;;;7.10;99.90;;;;;;5088276;28;20044;-73
2023/12/20 10:09:11;;;;;;;4.32;0.98;;;7.10;99.90;;;;;;5090295;28;20047;-72
2023/12/20 10:11:37;;;;;;;6.65;1.10;;;7.10;99.90;;;;;;5082676;28;20102;-72
2023/12/20 10:14:03;;;;;;;6.57;1.10;;;7.10;99.90;;;;;;5084800;28;20040;-72
2023/12/20 10:16:30;;;;;;;4.97;1.10;;;7.00;99.90;;;;;;5067021;28;20077;-72
2023/12/20 10:18:56;;;;;;;4.15;1.27;;;7.10;99.90;;;;;;5082748;28;20438;-72
2023/12/20 10:21:26;;;;;;;4.40;1.25;;;7.20;99.90;;;;;;5091518;28;20478;-72
2023/12/20 10:23:55;;;;;;;5.85;1.15;;;7.20;99.90;;;;;;5093617;28;20052;-72
2023/12/20 10:26:22;;;;;;;9.32;1.67;;;7.20;99.90;;;;;;5094315;28;20562;-72
2023/12/20 10:28:54;;;;;;;7.00;1.80;;;7.30;99.90;;;;;;5092190;28;20037;-72
2023/12/20 10:31:33;;;;;;;11.82;2.78;;;7.20;99.90;;;;;;5078429;28;20067;-72
2023/12/20 10:34:00;;;;;;;11.05;1.30;;;7.20;99.90;;;;;;5075307;28;20500;-72
2023/12/20 10:36:32;;;;;;;11.75;1.25;;;7.20;99.90;;;;;;5075352;28;20116;-72
2023/12/20 10:38:58;;;;;;;7.32;1.25;;;7.20;99.90;;;;;;5074459;28;20068;-72
2023/12/20 10:41:32;;;;;;;11.35;2.20;;;7.20;99.90;;;;;;5074857;28;20036;-72
2023/12/20 10:44:00;;;;;;;8.23;1.50;;;7.30;99.90;;;;;;5073893;28;20044;-72
2023/12/20 10:46:30;;;;;;;8.95;2.75;;;7.30;99.90;;;;;;5074944;28;20044;-72
2023/12/20 10:48:57;;;;;;;5.18;1.38;;;7.40;99.90;;;;;;5079986;28;20167;-72
2023/12/20 10:51:24;;;;;;;11.10;2.58;;;7.30;99.90;;;;;;5074452;28;20047;-72
2023/12/20 10:53:50;;;;;;;13.90;3.47;;;7.40;99.90;;;;;;5073930;28;20050;-71
2023/12/20 10:56:20;;;;;;;9.70;2.53;;;7.40;99.90;;;;;;5073449;28;20036;-74
2023/12/20 10:58:48;;;;;;;15.25;2.13;;;7.40;99.90;;;;;;5073083;28;20087;-75
2023/12/20 11:01:14;;;;;;;7.20;1.48;;;7.50;99.90;;;;;;5074407;28;20115;-74
2023/12/20 11:03:50;;;;;;;11.27;1.90;;;7.50;99.90;;;;;;5073625;28;20052;-75
2023/12/20 11:06:35;;;;;;;4.72;1.65;;;7.40;99.90;;;;;;5073018;28;20055;-74
2023/12/20 11:09:12;;;;;;;10.63;3.30;;;7.50;99.90;;;;;;5074406;28;20075;-72
2023/12/20 11:11:52;;;;;;;14.80;2.65;;;7.60;99.90;;;;;;5080441;28;20408;-72
2023/12/20 11:14:25;;;;;;;11.30;2.70;;;7.50;99.90;;;;;;5074804;28;20119;-72
2023/12/20 11:17:04;;;;;;;8.05;1.70;;;7.50;99.90;;;;;;5074356;28;20040;-72
2023/12/20 11:19:30;;;;;;;12.38;2.10;;;7.50;99.90;;;;;;5076909;28;20036;-72
2023/12/20 11:21:57;;;;;;;17.10;2.85;;;7.60;99.90;;;;;;5082055;28;20138;-71
2023/12/20 11:24:24;;;;;;;16.48;3.30;;;7.70;99.90;;;;;;5080211;28;20681;-71
2023/12/20 11:26:51;;;;;;;8.82;2.33;;;7.70;99.90;;;;;;5082472;28;20405;-72
2023/12/20 11:29:36;;;;;;;12.57;3.55;;;7.70;99.90;;;;;;5085086;28;20040;-72
2023/12/20 11:32:03;;;;;;;11.75;1.92;;;7.70;99.90;;;;;;5104486;28;20032;-72
2023/12/20 11:34:33;;;;;;;14.77;2.28;;;7.70;99.90;;;;;;5081529;28;20051;-71
2023/12/20 11:37:00;;;;;;;13.73;2.25;;;7.70;99.90;;;;;;5084734;28;20510;-72
2023/12/20 11:39:27;;;;;;;8.25;1.80;;;7.80;99.90;;;;;;5080157;28;20044;-72
2023/12/20 11:41:57;;;;;;;7.10;1.98;;;7.70;99.90;;;;;;5072271;28;20082;-71
2023/12/20 11:44:25;;;;;;;16.08;2.40;;;7.80;99.90;;;;;;5073189;28;20048;-71
2023/12/20 11:46:50;;;;;;;12.30;2.50;;;7.80;99.90;;;;;;5077550;28;20486;-71
2023/12/20 11:49:16;;;;;;;8.93;2.45;;;7.70;99.90;;;;;;5082253;28;20043;-71
2023/12/20 11:51:42;;;;;;;11.18;3.53;;;7.80;99.90;;;;;;5082776;28;20039;-71
2023/12/20 11:54:08;;;;;;;11.35;2.10;;;7.80;99.90;;;;;;5084661;28;20028;-71
2023/12/20 11:56:36;;;;;;;11.73;2.28;;;7.90;99.90;;;;;;5081572;28;20032;-71
2023/12/20 11:59:02;;;;;;;11.80;2.60;;;7.90;99.90;;;;;;5073912;28;20040;-71
2023/12/20 12:01:27;;;;;;;14.07;2.42;;;7.90;99.90;;;;;;5073626;28;20048;-71
2023/12/20 12:04:03;;;;;;;15.80;3.35;;;8.00;99.90;;;;;;5073910;28;20428;-71
2023/12/20 12:06:29;;;;;;;11.05;1.85;;;8.00;99.90;;;;;;5073715;28;20040;-71
2023/12/20 12:08:55;;;;;;;14.98;2.00;;;8.00;99.90;;;;;;5073543;28;20139;-71
2023/12/20 12:11:21;;;;;;;15.18;2.15;;;8.10;99.90;;;;;;5073552;28;20444;-71
2023/12/20 12:13:47;;;;;;;13.43;2.08;;;8.10;99.90;;;;;;5073495;28;20128;-71
2023/12/20 12:16:16;;;;;;;24.27;2.78;;;8.20;99.90;;;;;;5073182;28;20068;-71
2023/12/20 12:18:42;;;;;;;14.57;3.55;;;8.20;99.90;;;;;;5073340;28;20036;-71
2023/12/20 12:21:07;;;;;;;11.52;2.40;;;8.10;99.90;;;;;;5073429;28;20109;-71
2023/12/20 12:23:33;;;;;;;12.80;2.08;;;8.10;99.90;;;;;;5072177;28;20506;-71
2023/12/20 12:25:59;;;;;;;16.00;2.63;;;8.10;99.90;;;;;;5077152;28;20033;-72
2023/12/20 12:28:32;;;;;;;10.93;3.05;;;8.10;99.90;;;;;;5064063;28;20502;-71
2023/12/20 12:30:58;;;;;;;;;;;8.10;99.90;;;;;;5082134;28;20402;-72
2023/12/20 12:33:27;;;;;;;11.10;2.08;;;8.10;99.90;;;;;;5091997;28;20003;-72
2023/12/20 12:35:54;;;;;;;9.48;2.42;;;8.10;99.90;;;;;;5093244;28;20027;-72
2023/12/20 12:38:21;;;;;;;12.65;2.50;;;8.10;99.90;;;;;;5091293;28;20048;-71
2023/12/20 12:40:47;;;;;;;10.45;2.10;;;8.10;99.90;;;;;;5072049;28;20059;-72
2023/12/20 12:43:12;;;;;;;11.32;2.83;;;8.10;99.90;;;;;;5072045;28;20032;-72
2023/12/20 12:45:38;;;;;;;12.10;2.40;;;8.20;99.90;;;;;;5070443;28;20032;-72